Pride Of Bruges — PGJW — position and weather

sailwx.info

Track history (hours):
 
Tides and Currents Weather Stations Pressure Air Temp Water Temp Dewpoint Dewpoint Depression Visibility Wind Speed Wind Dir Waves Ship Positions

Pride Of Bruges

Operator: P&O Ferries

Last reported at 2019-Nov-20 08:23 UTC. Time now 2019-Nov-20 10:09 UTC.
Position N 51°20' E 003°11'.

Length 180 m; draft 5.6 m.

Type: Ship. MMSI: 244387000.

Date/timePositionNaut miles runAvg speedWind from/ knotsBaromVisibWave heightAir tempDewpointWater temp
2019-Nov-20 08:23N 51°20' E 003°11'1 1.0
2019-Nov-20 07:30N 51°21' E 003°12'1514.6
2019-Nov-20 06:30N 51°29' E 002°53'3113.9
2019-Nov-20 04:18N 51°56' E 002°29'1214.9
2019-Nov-20 03:30N 52°06' E 002°19'1615.8
2019-Nov-20 02:30N 52°21' E 002°09'4916.4
2019-Nov-19 23:30N 52°59' E 001°18'1717.3
2019-Nov-19 22:30N 53°08' E 000°54'2617.3
2019-Nov-19 21:00N 53°28' E 000°26'3012.0
2019-Nov-19 18:30N 53°44' W 000°16'0 0.2
2019-Nov-19 17:58N 53°45' W 000°16'0 0.0
2019-Nov-19 16:30N 53°45' W 000°16'0 0.0
2019-Nov-19 14:30N 53°45' W 000°16'0 0.0
2019-Nov-19 13:29N 53°45' W 000°16'0 0.0
2019-Nov-19 10:58N 53°45' W 000°16'0 0.0
2019-Nov-19 09:00N 53°45' W 000°16'9 4.3
2019-Nov-19 07:01N 53°38' W 000°08'3714.8
2019-Nov-19 04:30N 53°16' E 000°42'4015.8
2019-Nov-19 02:00N 52°53' E 001°36'3413.5
2019-Nov-18 23:30N 52°25' E 002°06'1414.0
2019-Nov-18 22:31N 52°12' E 002°18'714.2
2019-Nov-18 22:01N 52°06' E 002°23'814.4
2019-Nov-18 21:28N 51°59' E 002°29'2215.0
2019-Nov-18 20:01N 51°39' E 002°42'115.4
2019-Nov-18 19:56N 51°38' E 002°43'715.2
2019-Nov-18 19:30N 51°33' E 002°50'18 5.2
2019-Nov-18 15:59N 51°20' E 003°11'0 0.0
2019-Nov-18 15:29N 51°20' E 003°11'0 0.0
2019-Nov-18 12:55N 51°20' E 003°11'0 0.0
2019-Nov-18 12:28N 51°20' E 003°11'0 0.0
2019-Nov-18 11:00N 51°20' E 003°11'0 0.0
2019-Nov-18 09:29N 51°20' E 003°11'49 9.0
2019-Nov-18 04:00N 52°01' E 002°26'713.7
2019-Nov-18 03:31N 52°07' E 002°21'2315.3
2019-Nov-18 02:00N 52°28' E 002°07'1616.3
2019-Nov-18 01:01N 52°43' E 001°54'2617.2
2019-Nov-17 23:30N 52°58' E 001°20'917.8
2019-Nov-17 23:01N 53°02' E 001°07'1817.7
2019-Nov-17 21:59N 53°14' E 000°44'3115.6
2019-Nov-17 20:00N 53°34' E 000°05'16 6.4
2019-Nov-17 17:29N 53°45' W 000°16'0 0.0
2019-Nov-17 16:59N 53°45' W 000°16'6 0.7
2019-Nov-17 07:30N 53°39' W 000°11'4314.3
2019-Nov-17 04:30N 53°22' E 000°55'714.8
2019-Nov-17 04:01N 53°17' E 001°04'815.3
2019-Nov-17 03:31N 53°11' E 001°12'3015.2
2019-Nov-17 01:31N 52°48' E 001°47'8614.0
2019-Nov-16 19:24N 51°32' E 002°50'615.6
2019-Nov-16 19:00N 51°27' E 002°56'815.5
2019-Nov-16 18:30N 51°24' E 003°07'4 4.2
2019-Nov-16 17:30N 51°20' E 003°11'0 0.0
2019-Nov-16 17:00N 51°20' E 003°11'0 0.0
2019-Nov-16 16:00N 51°20' E 003°11'0 0.0
2019-Nov-16 15:30N 51°20' E 003°11'6 0.7
2019-Nov-16 07:30N 51°24' E 003°04'1413.5
2019-Nov-16 06:30N 51°32' E 002°47'4113.8
2019-Nov-16 03:30N 52°10' E 002°22'714.1
2019-Nov-16 03:00N 52°17' E 002°17'714.6
2019-Nov-16 02:30N 52°23' E 002°12'6115.3
2019-Nov-15 22:30N 53°06' E 000°59'4015.9
2019-Nov-15 20:00N 53°33' E 000°10'1615.8
2019-Nov-15 19:00N 53°41' W 000°13'4 4.3
2019-Nov-15 17:59N 53°45' W 000°16'0 0.0
2019-Nov-15 15:30N 53°45' W 000°16'0 0.0
2019-Nov-15 13:30N 53°45' W 000°16'0 0.0
2019-Nov-15 11:59N 53°45' W 000°16'0 0.0
2019-Nov-15 09:28N 53°45' W 000°16'0 0.0
2019-Nov-15 08:30N 53°45' W 000°16'5 3.5
2019-Nov-15 07:00N 53°40' W 000°12'4813.6
2019-Nov-15 03:29N 53°20' E 001°00'5616.2
2019-Nov-15 00:01N 52°37' E 002°00'2214.6
2019-Nov-14 22:31N 52°17' E 002°16'4914.3
2019-Nov-14 19:06N 51°33' E 002°49'615.9
2019-Nov-14 18:44N 51°29' E 002°55'415.9
2019-Nov-14 18:28N 51°25' E 003°00'716.4
2019-Nov-14 18:01N 51°22' E 003°11'2 3.2
2019-Nov-14 17:26N 51°20' E 003°11'0 0.0
2019-Nov-14 10:20N 51°20' E 003°11'18 4.5
2019-Nov-14 06:26N 51°30' E 002°47'3514.3
2019-Nov-14 04:00N 52°01' E 002°24'2914.5
2019-Nov-14 02:01N 52°28' E 002°06'3614.4
2019-Nov-13 23:30N 52°57' E 001°33'3316.6
2019-Nov-13 21:30N 53°22' E 000°54'2216.5
2019-Nov-13 20:12N 53°32' E 000°23'2615.5
2019-Nov-13 18:30N 53°44' W 000°17'0 0.5
2019-Nov-13 18:00N 53°45' W 000°16'0 0.0
2019-Nov-13 15:58N 53°45' W 000°16'0 0.0
2019-Nov-13 14:28N 53°45' W 000°16'0 0.0
2019-Nov-13 13:58N 53°45' W 000°16'0 0.0
2019-Nov-13 12:30N 53°45' W 000°16'0 0.0
2019-Nov-13 11:29N 53°45' W 000°16'0 0.0
2019-Nov-13 09:59N 53°45' W 000°16'0 0.0
2019-Nov-13 09:29N 53°45' W 000°16'0 0.0
2019-Nov-13 08:28N 53°45' W 000°16'22 9.1
2019-Nov-13 06:00N 53°33' E 000°16'4314.2
2019-Nov-13 03:00N 53°09' E 001°15'815.1
2019-Nov-13 02:30N 53°04' E 001°24'815.6
2019-Nov-13 02:00N 52°58' E 001°33'3215.8
2019-Nov-13 00:00N 52°32' E 002°03'714.3
2019-Nov-12 23:30N 52°26' E 002°08'2013.5
2019-Nov-12 22:00N 52°08' E 002°22'5413.5
2019-Nov-12 18:00N 51°23' E 003°10'2 1.0
2019-Nov-12 15:26N 51°20' E 003°11'0 0.0
2019-Nov-12 14:50N 51°20' E 003°11'0 0.0
2019-Nov-12 13:49N 51°20' E 003°11'0 0.0
2019-Nov-12 13:25N 51°20' E 003°11'0 0.0
2019-Nov-12 12:55N 51°20' E 003°11'0 0.0
2019-Nov-12 11:54N 51°20' E 003°11'0 0.0
2019-Nov-12 11:30N 51°20' E 003°11'0 0.0
2019-Nov-12 09:57N 51°20' E 003°11'0 0.0
2019-Nov-12 08:32N 51°20' E 003°11'1 1.0
2019-Nov-12 07:30N 51°21' E 003°12'2414.4
2019-Nov-12 05:51N 51°36' E 002°42'3715.9
2019-Nov-12 03:30N 52°10' E 002°19'1515.1
2019-Nov-12 02:30N 52°24' E 002°08'1514.8
2019-Nov-12 01:30N 52°38' E 001°58'2214.4
2019-Nov-12 00:01N 52°54' E 001°36'3815.3
2019-Nov-11 21:30N 53°22' E 000°52'4615.4
2019-Nov-11 18:30N 53°44' W 000°16'0 0.1
2019-Nov-11 17:29N 53°45' W 000°16'0 0.0
2019-Nov-11 16:59N 53°45' W 000°16'0 0.0
2019-Nov-11 16:29N 53°45' W 000°16'0 0.0
2019-Nov-11 14:58N 53°45' W 000°16'0 0.0
2019-Nov-11 13:00N 53°45' W 000°16'0 0.0
2019-Nov-11 12:00N 53°45' W 000°16'0 0.0
2019-Nov-11 10:29N 53°45' W 000°16'0 0.0
2019-Nov-11 08:58N 53°45' W 000°16'15 5.1
2019-Nov-11 06:00N 53°35' E 000°03'713.8
2019-Nov-11 05:31N 53°33' E 000°15'2813.8
2019-Nov-11 03:30N 53°21' E 000°56'1413.6
2019-Nov-11 02:30N 53°11' E 001°12'714.9
2019-Nov-11 02:01N 53°06' E 001°20'1616.1
2019-Nov-11 01:01N 52°54' E 001°39'917.0
2019-Nov-11 00:31N 52°47' E 001°48'1716.6
2019-Nov-10 23:31N 52°34' E 002°04'1616.2
2019-Nov-10 22:31N 52°19' E 002°14'6014.9
2019-Nov-10 18:30N 51°26' E 002°60'9 3.7
2019-Nov-10 16:00N 51°20' E 003°11'0 0.0
2019-Nov-10 09:00N 51°20' E 003°11'  
Track history (hours):
 
Tides and Currents Weather Stations Pressure Air Temp Water Temp Dewpoint Dewpoint Depression Visibility Wind Speed Wind Dir Waves Ship Positions

Pride Of Bruges

Operator: P&O Ferries

Last reported at 2019-Nov-20 08:23 UTC. Time now 2019-Nov-20 10:09 UTC.
Position N 51°20' E 003°11'.

Length 180 m; draft 5.6 m.

Type: Ship. MMSI: 244387000.

Date/timePositionNaut miles runAvg speedWind from/ knotsBaromVisibWave heightAir tempDewpointWater temp
2019-Nov-20 08:23N 51°20' E 003°11'1 1.0
2019-Nov-20 07:30N 51°21' E 003°12'1514.6
2019-Nov-20 06:30N 51°29' E 002°53'3113.9
2019-Nov-20 04:18N 51°56' E 002°29'1214.9
2019-Nov-20 03:30N 52°06' E 002°19'1615.8
2019-Nov-20 02:30N 52°21' E 002°09'4916.4
2019-Nov-19 23:30N 52°59' E 001°18'1717.3
2019-Nov-19 22:30N 53°08' E 000°54'2617.3
2019-Nov-19 21:00N 53°28' E 000°26'3012.0
2019-Nov-19 18:30N 53°44' W 000°16'0 0.2
2019-Nov-19 17:58N 53°45' W 000°16'0 0.0
2019-Nov-19 16:30N 53°45' W 000°16'0 0.0
2019-Nov-19 14:30N 53°45' W 000°16'0 0.0
2019-Nov-19 13:29N 53°45' W 000°16'0 0.0
2019-Nov-19 10:58N 53°45' W 000°16'0 0.0
2019-Nov-19 09:00N 53°45' W 000°16'9 4.3
2019-Nov-19 07:01N 53°38' W 000°08'3714.8
2019-Nov-19 04:30N 53°16' E 000°42'4015.8
2019-Nov-19 02:00N 52°53' E 001°36'3413.5
2019-Nov-18 23:30N 52°25' E 002°06'1414.0
2019-Nov-18 22:31N 52°12' E 002°18'714.2
2019-Nov-18 22:01N 52°06' E 002°23'814.4
2019-Nov-18 21:28N 51°59' E 002°29'2215.0
2019-Nov-18 20:01N 51°39' E 002°42'115.4
2019-Nov-18 19:56N 51°38' E 002°43'715.2
2019-Nov-18 19:30N 51°33' E 002°50'18 5.2
2019-Nov-18 15:59N 51°20' E 003°11'0 0.0
2019-Nov-18 15:29N 51°20' E 003°11'0 0.0
2019-Nov-18 12:55N 51°20' E 003°11'0 0.0
2019-Nov-18 12:28N 51°20' E 003°11'0 0.0
2019-Nov-18 11:00N 51°20' E 003°11'0 0.0
2019-Nov-18 09:29N 51°20' E 003°11'49 9.0
2019-Nov-18 04:00N 52°01' E 002°26'713.7
2019-Nov-18 03:31N 52°07' E 002°21'2315.3
2019-Nov-18 02:00N 52°28' E 002°07'1616.3
2019-Nov-18 01:01N 52°43' E 001°54'2617.2
2019-Nov-17 23:30N 52°58' E 001°20'917.8
2019-Nov-17 23:01N 53°02' E 001°07'1817.7
2019-Nov-17 21:59N 53°14' E 000°44'3115.6
2019-Nov-17 20:00N 53°34' E 000°05'16 6.4
2019-Nov-17 17:29N 53°45' W 000°16'0 0.0
2019-Nov-17 16:59N 53°45' W 000°16'6 0.7
2019-Nov-17 07:30N 53°39' W 000°11'4314.3
2019-Nov-17 04:30N 53°22' E 000°55'714.8
2019-Nov-17 04:01N 53°17' E 001°04'815.3
2019-Nov-17 03:31N 53°11' E 001°12'3015.2
2019-Nov-17 01:31N 52°48' E 001°47'8614.0
2019-Nov-16 19:24N 51°32' E 002°50'615.6
2019-Nov-16 19:00N 51°27' E 002°56'815.5
2019-Nov-16 18:30N 51°24' E 003°07'4 4.2
2019-Nov-16 17:30N 51°20' E 003°11'0 0.0
2019-Nov-16 17:00N 51°20' E 003°11'0 0.0
2019-Nov-16 16:00N 51°20' E 003°11'0 0.0
2019-Nov-16 15:30N 51°20' E 003°11'6 0.7
2019-Nov-16 07:30N 51°24' E 003°04'1413.5
2019-Nov-16 06:30N 51°32' E 002°47'4113.8
2019-Nov-16 03:30N 52°10' E 002°22'714.1
2019-Nov-16 03:00N 52°17' E 002°17'714.6
2019-Nov-16 02:30N 52°23' E 002°12'6115.3
2019-Nov-15 22:30N 53°06' E 000°59'4015.9
2019-Nov-15 20:00N 53°33' E 000°10'1615.8
2019-Nov-15 19:00N 53°41' W 000°13'4 4.3
2019-Nov-15 17:59N 53°45' W 000°16'0 0.0
2019-Nov-15 15:30N 53°45' W 000°16'0 0.0
2019-Nov-15 13:30N 53°45' W 000°16'0 0.0
2019-Nov-15 11:59N 53°45' W 000°16'0 0.0
2019-Nov-15 09:28N 53°45' W 000°16'0 0.0
2019-Nov-15 08:30N 53°45' W 000°16'5 3.5
2019-Nov-15 07:00N 53°40' W 000°12'4813.6
2019-Nov-15 03:29N 53°20' E 001°00'5616.2
2019-Nov-15 00:01N 52°37' E 002°00'2214.6
2019-Nov-14 22:31N 52°17' E 002°16'4914.3
2019-Nov-14 19:06N 51°33' E 002°49'615.9
2019-Nov-14 18:44N 51°29' E 002°55'415.9
2019-Nov-14 18:28N 51°25' E 003°00'716.4
2019-Nov-14 18:01N 51°22' E 003°11'2 3.2
2019-Nov-14 17:26N 51°20' E 003°11'0 0.0
2019-Nov-14 10:20N 51°20' E 003°11'18 4.5
2019-Nov-14 06:26N 51°30' E 002°47'3514.3
2019-Nov-14 04:00N 52°01' E 002°24'2914.5
2019-Nov-14 02:01N 52°28' E 002°06'3614.4
2019-Nov-13 23:30N 52°57' E 001°33'3316.6
2019-Nov-13 21:30N 53°22' E 000°54'2216.5
2019-Nov-13 20:12N 53°32' E 000°23'2615.5
2019-Nov-13 18:30N 53°44' W 000°17'0 0.5
2019-Nov-13 18:00N 53°45' W 000°16'0 0.0
2019-Nov-13 15:58N 53°45' W 000°16'0 0.0
2019-Nov-13 14:28N 53°45' W 000°16'0 0.0
2019-Nov-13 13:58N 53°45' W 000°16'0 0.0
2019-Nov-13 12:30N 53°45' W 000°16'0 0.0
2019-Nov-13 11:29N 53°45' W 000°16'0 0.0
2019-Nov-13 09:59N 53°45' W 000°16'0 0.0
2019-Nov-13 09:29N 53°45' W 000°16'0 0.0
2019-Nov-13 08:28N 53°45' W 000°16'22 9.1
2019-Nov-13 06:00N 53°33' E 000°16'4314.2
2019-Nov-13 03:00N 53°09' E 001°15'815.1
2019-Nov-13 02:30N 53°04' E 001°24'815.6
2019-Nov-13 02:00N 52°58' E 001°33'3215.8
2019-Nov-13 00:00N 52°32' E 002°03'714.3
2019-Nov-12 23:30N 52°26' E 002°08'2013.5
2019-Nov-12 22:00N 52°08' E 002°22'5413.5
2019-Nov-12 18:00N 51°23' E 003°10'2 1.0
2019-Nov-12 15:26N 51°20' E 003°11'0 0.0
2019-Nov-12 14:50N 51°20' E 003°11'0 0.0
2019-Nov-12 13:49N 51°20' E 003°11'0 0.0
2019-Nov-12 13:25N 51°20' E 003°11'0 0.0
2019-Nov-12 12:55N 51°20' E 003°11'0 0.0
2019-Nov-12 11:54N 51°20' E 003°11'0 0.0
2019-Nov-12 11:30N 51°20' E 003°11'0 0.0
2019-Nov-12 09:57N 51°20' E 003°11'0 0.0
2019-Nov-12 08:32N 51°20' E 003°11'1 1.0
2019-Nov-12 07:30N 51°21' E 003°12'2414.4
2019-Nov-12 05:51N 51°36' E 002°42'3715.9
2019-Nov-12 03:30N 52°10' E 002°19'1515.1
2019-Nov-12 02:30N 52°24' E 002°08'1514.8
2019-Nov-12 01:30N 52°38' E 001°58'2214.4
2019-Nov-12 00:01N 52°54' E 001°36'3815.3
2019-Nov-11 21:30N 53°22' E 000°52'4615.4
2019-Nov-11 18:30N 53°44' W 000°16'0 0.1
2019-Nov-11 17:29N 53°45' W 000°16'0 0.0
2019-Nov-11 16:59N 53°45' W 000°16'0 0.0
2019-Nov-11 16:29N 53°45' W 000°16'0 0.0
2019-Nov-11 14:58N 53°45' W 000°16'0 0.0
2019-Nov-11 13:00N 53°45' W 000°16'0 0.0
2019-Nov-11 12:00N 53°45' W 000°16'0 0.0
2019-Nov-11 10:29N 53°45' W 000°16'0 0.0
2019-Nov-11 08:58N 53°45' W 000°16'15 5.1
2019-Nov-11 06:00N 53°35' E 000°03'713.8
2019-Nov-11 05:31N 53°33' E 000°15'2813.8
2019-Nov-11 03:30N 53°21' E 000°56'1413.6
2019-Nov-11 02:30N 53°11' E 001°12'714.9
2019-Nov-11 02:01N 53°06' E 001°20'1616.1
2019-Nov-11 01:01N 52°54' E 001°39'917.0
2019-Nov-11 00:31N 52°47' E 001°48'1716.6
2019-Nov-10 23:31N 52°34' E 002°04'1616.2
2019-Nov-10 22:31N 52°19' E 002°14'6014.9
2019-Nov-10 18:30N 51°26' E 002°60'9 3.7
2019-Nov-10 16:00N 51°20' E 003°11'0 0.0
2019-Nov-10 09:00N 51°20' E 003°11'  

Dump ship's entire track history